sensor_id;sensor_type;location;lat;lon;timestamp;pressure;altitude;pressure_sealevel;temperature;humidity
39449;BME280;25151;45.566;9.382;2023-04-20T00:01:38;99350.81;;;20.14;57.71
39449;BME280;25151;45.566;9.382;2023-04-20T00:04:38;99344.44;;;20.13;58.09
39449;BME280;25151;45.566;9.382;2023-04-20T00:07:40;99338.84;;;20.13;58.01
39449;BME280;25151;45.566;9.382;2023-04-20T00:10:41;99336.06;;;20.13;57.81
39449;BME280;25151;45.566;9.382;2023-04-20T00:13:41;99340.09;;;20.12;57.94
39449;BME280;25151;45.566;9.382;2023-04-20T00:16:42;99343.66;;;20.13;57.81
39449;BME280;25151;45.566;9.382;2023-04-20T00:19:43;99328.91;;;20.12;57.71
39449;BME280;25151;45.566;9.382;2023-04-20T00:22:44;99327.34;;;20.11;57.76
39449;BME280;25151;45.566;9.382;2023-04-20T00:25:44;99321.75;;;20.11;57.98
39449;BME280;25151;45.566;9.382;2023-04-20T00:28:49;99327.34;;;20.11;57.87
39449;BME280;25151;45.566;9.382;2023-04-20T00:31:50;99318.13;;;20.11;57.65
39449;BME280;25151;45.566;9.382;2023-04-20T00:34:50;99327.78;;;20.10;57.83
39449;BME280;25151;45.566;9.382;2023-04-20T00:37:51;99315.34;;;20.11;57.88
39449;BME280;25151;45.566;9.382;2023-04-20T00:40:53;99310.22;;;20.09;58.07
39449;BME280;25151;45.566;9.382;2023-04-20T00:43:54;99310.22;;;20.09;57.94
39449;BME280;25151;45.566;9.382;2023-04-20T00:46:55;99299.78;;;20.10;57.84
39449;BME280;25151;45.566;9.382;2023-04-20T00:49:56;99287.81;;;20.09;57.89
39449;BME280;25151;45.566;9.382;2023-04-20T00:52:57;99273.50;;;20.07;57.84
39449;BME280;25151;45.566;9.382;2023-04-20T00:55:58;99271.50;;;20.08;57.98
39449;BME280;25151;45.566;9.382;2023-04-20T00:59:00;99269.47;;;20.08;58.02
39449;BME280;25151;45.566;9.382;2023-04-20T01:02:01;99266.69;;;20.08;58.01
39449;BME280;25151;45.566;9.382;2023-04-20T01:05:02;99271.50;;;20.08;57.77
39449;BME280;25151;45.566;9.382;2023-04-20T01:08:03;99259.50;;;20.07;57.92
39449;BME280;25151;45.566;9.382;2023-04-20T01:11:04;99260.75;;;20.06;57.94
39449;BME280;25151;45.566;9.382;2023-04-20T01:14:05;99260.75;;;20.06;57.73
39449;BME280;25151;45.566;9.382;2023-04-20T01:17:06;99262.47;;;20.04;57.98
39449;BME280;25151;45.566;9.382;2023-04-20T01:20:09;99255.28;;;20.03;57.99
39449;BME280;25151;45.566;9.382;2023-04-20T01:23:13;99258.41;;;20.05;57.84
39449;BME280;25151;45.566;9.382;2023-04-20T01:26:16;99257.63;;;20.04;57.95
39449;BME280;25151;45.566;9.382;2023-04-20T01:29:17;99256.06;;;20.03;57.93
39449;BME280;25151;45.566;9.382;2023-04-20T01:32:18;99250.47;;;20.03;58.05
39449;BME280;25151;45.566;9.382;2023-04-20T01:35:19;99251.25;;;20.04;58.01
39449;BME280;25151;45.566;9.382;2023-04-20T01:38:21;99244.09;;;20.03;58.04
39449;BME280;25151;45.566;9.382;2023-04-20T01:41:22;99250.47;;;20.03;57.69
39449;BME280;25151;45.566;9.382;2023-04-20T01:44:23;99244.88;;;20.03;57.89
39449;BME280;25151;45.566;9.382;2023-04-20T01:47:25;99241.75;;;20.01;57.77
39449;BME280;25151;45.566;9.382;2023-04-20T01:50:25;99241.75;;;20.01;58.17
39449;BME280;25151;45.566;9.382;2023-04-20T01:53:26;99250.47;;;20.03;58.01
39449;BME280;25151;45.566;9.382;2023-04-20T01:56:27;99248.91;;;20.02;57.97
39449;BME280;25151;45.566;9.382;2023-04-20T01:59:28;99248.91;;;20.02;57.94
39449;BME280;25151;45.566;9.382;2023-04-20T02:02:29;99252.94;;;20.01;58.08
39449;BME280;25151;45.566;9.382;2023-04-20T02:05:30;99254.97;;;20.01;57.91
39449;BME280;25151;45.566;9.382;2023-04-20T02:08:32;99251.41;;;20.00;57.89
39449;BME280;25151;45.566;9.382;2023-04-20T02:11:32;99245.81;;;20.00;57.99
39449;BME280;25151;45.566;9.382;2023-04-20T02:14:33;99247.03;;;19.99;58.07
39449;BME280;25151;45.566;9.382;2023-04-20T02:17:34;99241.75;;;20.01;58.12
39449;BME280;25151;45.566;9.382;2023-04-20T02:20:38;99237.06;;;19.98;57.82
39449;BME280;25151;45.566;9.382;2023-04-20T02:23:39;99239.44;;;20.00;57.83
39449;BME280;25151;45.566;9.382;2023-04-20T02:26:40;99238.63;;;19.99;58.00
39449;BME280;25151;45.566;9.382;2023-04-20T02:29:41;99237.06;;;19.98;57.96
39449;BME280;25151;45.566;9.382;2023-04-20T02:32:43;99241.44;;;19.99;57.79
39449;BME280;25151;45.566;9.382;2023-04-20T02:35:44;99236.28;;;19.98;58.03
39449;BME280;25151;45.566;9.382;2023-04-20T02:38:44;99242.66;;;19.98;57.95
39449;BME280;25151;45.566;9.382;2023-04-20T02:41:46;99241.13;;;19.97;58.10
39449;BME280;25151;45.566;9.382;2023-04-20T02:44:46;99236.28;;;19.98;58.02
39449;BME280;25151;45.566;9.382;2023-04-20T02:47:47;99229.16;;;19.97;58.12
39449;BME280;25151;45.566;9.382;2023-04-20T02:50:48;99233.97;;;19.96;57.85
39449;BME280;25151;45.566;9.382;2023-04-20T02:53:49;99238.31;;;19.97;57.93
39449;BME280;25151;45.566;9.382;2023-04-20T02:56:50;99236.28;;;19.98;57.89
39449;BME280;25151;45.566;9.382;2023-04-20T02:59:51;99236.78;;;19.96;57.80
39449;BME280;25151;45.566;9.382;2023-04-20T03:02:51;99236.78;;;19.96;57.90
39449;BME280;25151;45.566;9.382;2023-04-20T03:05:52;99234.75;;;19.97;58.08
39449;BME280;25151;45.566;9.382;2023-04-20T03:08:53;99236.78;;;19.96;57.81
39449;BME280;25151;45.566;9.382;2023-04-20T03:11:55;99235.19;;;19.95;58.12
39449;BME280;25151;45.566;9.382;2023-04-20T03:14:57;99237.22;;;19.95;58.14
39449;BME280;25151;45.566;9.382;2023-04-20T03:17:58;99236.44;;;19.94;58.00
39449;BME280;25151;45.566;9.382;2023-04-20T03:20:58;99237.97;;;19.95;58.12
39449;BME280;25151;45.566;9.382;2023-04-20T03:23:59;99230.84;;;19.94;58.22
39449;BME280;25151;45.566;9.382;2023-04-20T03:27:04;99230.84;;;19.94;58.01
39449;BME280;25151;45.566;9.382;2023-04-20T03:30:27;99228.03;;;19.94;57.88
39449;BME280;25151;45.566;9.382;2023-04-20T03:33:32;99234.88;;;19.93;58.13
39449;BME280;25151;45.566;9.382;2023-04-20T03:36:34;99233.31;;;19.92;58.20
39449;BME280;25151;45.566;9.382;2023-04-20T03:39:35;99233.31;;;19.92;57.91
39449;BME280;25151;45.566;9.382;2023-04-20T03:42:38;99236.91;;;19.93;58.13
39449;BME280;25151;45.566;9.382;2023-04-20T03:45:49;99227.72;;;19.92;57.99
39449;BME280;25151;45.566;9.382;2023-04-20T03:49:10;99235.31;;;19.92;57.96
39449;BME280;25151;45.566;9.382;2023-04-20T03:52:11;99235.78;;;19.90;58.13
39449;BME280;25151;45.566;9.382;2023-04-20T03:55:16;99238.13;;;19.92;58.23
39449;BME280;25151;45.566;9.382;2023-04-20T03:58:18;99235.31;;;19.92;57.98
39449;BME280;25151;45.566;9.382;2023-04-20T04:01:21;99234.53;;;19.91;58.18
39449;BME280;25151;45.566;9.382;2023-04-20T04:04:23;99228.16;;;19.90;57.92
39449;BME280;25151;45.566;9.382;2023-04-20T04:07:24;99235.78;;;19.90;58.24
39449;BME280;25151;45.566;9.382;2023-04-20T04:10:26;99240.13;;;19.91;58.03
39449;BME280;25151;45.566;9.382;2023-04-20T04:13:31;99233.78;;;19.90;58.11
39449;BME280;25151;45.566;9.382;2023-04-20T04:16:34;99235.78;;;19.90;58.01
39449;BME280;25151;45.566;9.382;2023-04-20T04:19:48;99240.59;;;19.89;57.99
39449;BME280;25151;45.566;9.382;2023-04-20T04:22:51;99247.75;;;19.90;58.03
39449;BME280;25151;45.566;9.382;2023-04-20T04:25:53;99249.78;;;19.90;57.99
39449;BME280;25151;45.566;9.382;2023-04-20T04:29:00;99247.75;;;19.90;58.21
39449;BME280;25151;45.566;9.382;2023-04-20T04:32:11;99251.03;;;19.89;58.06
39449;BME280;25151;45.566;9.382;2023-04-20T04:35:37;99251.03;;;19.89;58.15
39449;BME280;25151;45.566;9.382;2023-04-20T04:38:43;99239.84;;;19.89;58.05
39449;BME280;25151;45.566;9.382;2023-04-20T04:41:55;99249.47;;;19.88;58.13
39449;BME280;25151;45.566;9.382;2023-04-20T04:45:16;99250.25;;;19.88;58.17
39449;BME280;25151;45.566;9.382;2023-04-20T04:48:24;99246.97;;;19.90;58.12
39449;BME280;25151;45.566;9.382;2023-04-20T04:51:27;99245.44;;;19.89;57.97
39449;BME280;25151;45.566;9.382;2023-04-20T04:54:28;99247.75;;;19.90;58.12
39449;BME280;25151;45.566;9.382;2023-04-20T04:57:31;99235.00;;;19.89;57.92
39449;BME280;25151;45.566;9.382;2023-04-20T05:00:57;99235.78;;;19.90;57.96
39449;BME280;25151;45.566;9.382;2023-04-20T05:04:19;99230.19;;;19.90;58.11
39449;BME280;25151;45.566;9.382;2023-04-20T05:07:33;99234.25;;;19.89;58.11
39449;BME280;25151;45.566;9.382;2023-04-20T05:10:39;99224.28;;;19.88;58.13
39449;BME280;25151;45.566;9.382;2023-04-20T05:13:40;99231.09;;;19.87;58.19
39449;BME280;25151;45.566;9.382;2023-04-20T05:16:42;99234.25;;;19.89;58.07
39449;BME280;25151;45.566;9.382;2023-04-20T05:19:50;99243.88;;;19.88;58.10
39449;BME280;25151;45.566;9.382;2023-04-20T05:22:52;99239.06;;;19.88;58.31
39449;BME280;25151;45.566;9.382;2023-04-20T05:26:00;99239.50;;;19.87;58.14
39449;BME280;25151;45.566;9.382;2023-04-20T05:29:02;99249.47;;;19.88;58.25
39449;BME280;25151;45.566;9.382;2023-04-20T05:32:08;99235.94;;;19.86;58.12
39449;BME280;25151;45.566;9.382;2023-04-20T05:35:10;99247.91;;;19.87;58.22
39449;BME280;25151;45.566;9.382;2023-04-20T05:38:15;99250.69;;;19.87;58.04
39449;BME280;25151;45.566;9.382;2023-04-20T05:41:28;99242.28;;;19.87;58.05
39449;BME280;25151;45.566;9.382;2023-04-20T05:44:33;99250.69;;;19.87;58.04
39449;BME280;25151;45.566;9.382;2023-04-20T05:47:39;99250.38;;;19.85;58.31
39449;BME280;25151;45.566;9.382;2023-04-20T05:50:40;99244.78;;;19.85;58.29
39449;BME280;25151;45.566;9.382;2023-04-20T05:53:43;99238.41;;;19.84;58.12
39449;BME280;25151;45.566;9.382;2023-04-20T05:56:46;99240.75;;;19.86;58.24
39449;BME280;25151;45.566;9.382;2023-04-20T05:59:49;99241.84;;;19.88;58.19
39449;BME280;25151;45.566;9.382;2023-04-20T06:02:50;99236.56;;;19.90;57.96
39449;BME280;25151;45.566;9.382;2023-04-20T06:05:51;99234.53;;;19.91;57.98
39449;BME280;25151;45.566;9.382;2023-04-20T06:08:52;99238.94;;;19.92;58.08
39449;BME280;25151;45.566;9.382;2023-04-20T06:11:54;99231.75;;;19.91;58.05
39449;BME280;25151;45.566;9.382;2023-04-20T06:15:02;99236.13;;;19.92;58.09
39449;BME280;25151;45.566;9.382;2023-04-20T06:18:04;99234.09;;;19.93;57.99
39449;BME280;25151;45.566;9.382;2023-04-20T06:21:08;99240.00;;;19.95;58.20
39449;BME280;25151;45.566;9.382;2023-04-20T06:24:11;99251.19;;;19.95;58.01
39449;BME280;25151;45.566;9.382;2023-04-20T06:27:12;99253.22;;;19.94;58.09
39449;BME280;25151;45.566;9.382;2023-04-20T06:30:15;99255.25;;;19.94;58.19
39449;BME280;25151;45.566;9.382;2023-04-20T06:33:16;99246.84;;;19.94;58.16
39449;BME280;25151;45.566;9.382;2023-04-20T06:36:19;99254.00;;;19.95;58.10
39449;BME280;25151;45.566;9.382;2023-04-20T06:39:23;99254.00;;;19.95;58.26
39449;BME280;25151;45.566;9.382;2023-04-20T06:42:23;99253.22;;;19.94;58.26
39449;BME280;25151;45.566;9.382;2023-04-20T06:45:25;99256.78;;;19.95;58.17
39449;BME280;25151;45.566;9.382;2023-04-20T06:48:26;99260.38;;;19.95;58.25
39449;BME280;25151;45.566;9.382;2023-04-20T06:51:28;99249.97;;;19.96;58.29
39449;BME280;25151;45.566;9.382;2023-04-20T06:54:30;99256.34;;;19.96;58.27
39449;BME280;25151;45.566;9.382;2023-04-20T06:57:31;99255.13;;;19.97;58.39
39449;BME280;25151;45.566;9.382;2023-04-20T07:00:32;99251.41;;;20.00;58.31
39449;BME280;25151;45.566;9.382;2023-04-20T07:03:33;99245.03;;;20.00;58.14
39449;BME280;25151;45.566;9.382;2023-04-20T07:06:34;99244.22;;;19.99;58.13
39449;BME280;25151;45.566;9.382;2023-04-20T07:09:35;99251.41;;;20.00;58.11
39449;BME280;25151;45.566;9.382;2023-04-20T07:12:37;99248.59;;;20.00;58.23
39449;BME280;25151;45.566;9.382;2023-04-20T07:15:38;99252.94;;;20.01;58.18
39449;BME280;25151;45.566;9.382;2023-04-20T07:18:39;99261.34;;;20.01;58.34
39449;BME280;25151;45.566;9.382;2023-04-20T07:21:40;99271.28;;;20.02;58.36
39449;BME280;25151;45.566;9.382;2023-04-20T07:24:40;99269.75;;;20.01;58.47
39449;BME280;25151;45.566;9.382;2023-04-20T07:27:42;99285.28;;;20.02;58.41
39449;BME280;25151;45.566;9.382;2023-04-20T07:30:43;99286.53;;;20.01;58.43
39449;BME280;25151;45.566;9.382;2023-04-20T07:33:44;99290.88;;;20.02;58.44
39449;BME280;25151;45.566;9.382;2023-04-20T07:36:45;99306.91;;;20.02;58.44
39449;BME280;25151;45.566;9.382;2023-04-20T07:39:46;99307.69;;;20.02;58.53
39449;BME280;25151;45.566;9.382;2023-04-20T07:42:47;99314.53;;;20.01;58.30
39449;BME280;25151;45.566;9.382;2023-04-20T07:45:49;99314.53;;;20.01;58.32
39449;BME280;25151;45.566;9.382;2023-04-20T07:48:49;99319.34;;;20.01;58.38
39449;BME280;25151;45.566;9.382;2023-04-20T07:51:50;99312.97;;;20.00;58.45
39449;BME280;25151;45.566;9.382;2023-04-20T07:54:51;99307.38;;;20.00;58.44
39449;BME280;25151;45.566;9.382;2023-04-20T07:57:58;99308.94;;;20.01;58.25
39449;BME280;25151;45.566;9.382;2023-04-20T08:01:00;99289.81;;;20.00;58.39
39449;BME280;25151;45.566;9.382;2023-04-20T08:04:03;99285.88;;;19.97;58.42
39449;BME280;25151;45.566;9.382;2023-04-20T08:07:05;99282.75;;;19.95;58.32
39449;BME280;25151;45.566;9.382;2023-04-20T08:10:08;99285.56;;;19.95;58.43
39449;BME280;25151;45.566;9.382;2023-04-20T08:13:14;99288.34;;;19.95;58.53
39449;BME280;25151;45.566;9.382;2023-04-20T08:16:17;99288.34;;;19.95;58.57
39449;BME280;25151;45.566;9.382;2023-04-20T08:19:20;99281.19;;;19.94;58.53
39449;BME280;25151;45.566;9.382;2023-04-20T08:22:24;99279.66;;;19.93;58.27
39449;BME280;25151;45.566;9.382;2023-04-20T08:25:30;99284.47;;;19.93;58.20
39449;BME280;25151;45.566;9.382;2023-04-20T08:28:34;99290.84;;;19.93;58.34
39449;BME280;25151;45.566;9.382;2023-04-20T08:31:39;99285.25;;;19.93;58.45
39449;BME280;25151;45.566;9.382;2023-04-20T08:34:44;99283.22;;;19.94;58.36
39449;BME280;25151;45.566;9.382;2023-04-20T08:37:51;99291.63;;;19.94;58.20
39449;BME280;25151;45.566;9.382;2023-04-20T08:40:54;99287.72;;;19.91;58.25
39449;BME280;25151;45.566;9.382;2023-04-20T08:43:58;99291.75;;;19.90;58.21
39449;BME280;25151;45.566;9.382;2023-04-20T08:47:02;99298.91;;;19.91;58.38
39449;BME280;25151;45.566;9.382;2023-04-20T08:50:07;99290.50;;;19.91;58.34
39449;BME280;25151;45.566;9.382;2023-04-20T08:53:09;99301.38;;;19.89;58.31
39449;BME280;25151;45.566;9.382;2023-04-20T08:56:11;99306.09;;;19.92;58.29
39449;BME280;25151;45.566;9.382;2023-04-20T08:59:15;99309.78;;;19.89;58.21
39449;BME280;25151;45.566;9.382;2023-04-20T09:02:17;99322.53;;;19.90;58.45
39449;BME280;25151;45.566;9.382;2023-04-20T09:05:30;99317.41;;;19.88;58.33
39449;BME280;25151;45.566;9.382;2023-04-20T09:08:40;99314.13;;;19.90;58.52
39449;BME280;25151;45.566;9.382;2023-04-20T09:11:44;99313.34;;;19.89;58.36
39449;BME280;25151;45.566;9.382;2023-04-20T09:14:49;99311.81;;;19.88;58.24
39449;BME280;25151;45.566;9.382;2023-04-20T09:17:53;99311.03;;;19.88;58.18
39449;BME280;25151;45.566;9.382;2023-04-20T09:21:13;99303.84;;;19.87;58.34
39449;BME280;25151;45.566;9.382;2023-04-20T09:24:20;99311.81;;;19.88;58.49
39449;BME280;25151;45.566;9.382;2023-04-20T09:27:22;99306.22;;;19.88;58.33
39449;BME280;25151;45.566;9.382;2023-04-20T09:30:40;99306.66;;;19.87;58.53
39449;BME280;25151;45.566;9.382;2023-04-20T09:33:42;99298.25;;;19.87;58.35
39449;BME280;25151;45.566;9.382;2023-04-20T09:36:48;99308.22;;;19.88;58.37
39449;BME280;25151;45.566;9.382;2023-04-20T09:39:57;99315.03;;;19.87;58.42
39449;BME280;25151;45.566;9.382;2023-04-20T09:43:26;99317.06;;;19.86;58.44
39449;BME280;25151;45.566;9.382;2023-04-20T09:46:32;99322.66;;;19.86;58.39
39449;BME280;25151;45.566;9.382;2023-04-20T09:49:36;99317.53;;;19.85;58.66
39449;BME280;25151;45.566;9.382;2023-04-20T09:52:38;99302.28;;;19.86;58.35
39449;BME280;25151;45.566;9.382;2023-04-20T09:55:47;99303.84;;;19.87;58.49
39449;BME280;25151;45.566;9.382;2023-04-20T09:58:51;99291.56;;;19.84;58.52
39449;BME280;25151;45.566;9.382;2023-04-20T10:01:53;99289.56;;;19.85;58.69
39449;BME280;25151;45.566;9.382;2023-04-20T10:04:56;99286.28;;;19.86;58.56
39449;BME280;25151;45.566;9.382;2023-04-20T10:08:02;99283.06;;;19.88;58.69
39449;BME280;25151;45.566;9.382;2023-04-20T10:11:05;99279.00;;;19.89;58.71
39449;BME280;25151;45.566;9.382;2023-04-20T10:17:29;99301.38;;;19.89;58.48
39449;BME280;25151;45.566;9.382;2023-04-20T10:20:31;99302.94;;;19.90;58.44
39449;BME280;25151;45.566;9.382;2023-04-20T10:23:34;99308.22;;;19.88;58.42
39449;BME280;25151;45.566;9.382;2023-04-20T10:26:43;99315.03;;;19.87;58.52
39449;BME280;25151;45.566;9.382;2023-04-20T10:29:49;99312.25;;;19.87;58.67
39449;BME280;25151;45.566;9.382;2023-04-20T10:33:12;99313.50;;;19.86;58.79
39449;BME280;25151;45.566;9.382;2023-04-20T10:36:29;99295.16;;;19.85;58.74
39449;BME280;25151;45.566;9.382;2023-04-20T10:39:32;99299.50;;;19.86;58.81
39449;BME280;25151;45.566;9.382;2023-04-20T10:42:44;99289.56;;;19.85;58.92
39449;BME280;25151;45.566;9.382;2023-04-20T10:45:49;99285.50;;;19.86;58.97
39449;BME280;25151;45.566;9.382;2023-04-20T10:48:57;99281.03;;;19.88;59.05
39449;BME280;25151;45.566;9.382;2023-04-20T10:51:59;99277.44;;;19.88;58.78
39449;BME280;25151;45.566;9.382;2023-04-20T10:55:04;99267.16;;;19.85;59.10
39449;BME280;25151;45.566;9.382;2023-04-20T10:58:19;99263.13;;;19.86;58.96
39449;BME280;25151;45.566;9.382;2023-04-20T11:01:21;99251.94;;;19.86;59.15
39449;BME280;25151;45.566;9.382;2023-04-20T11:04:33;99260.97;;;19.90;59.15
39449;BME280;25151;45.566;9.382;2023-04-20T11:07:58;99254.47;;;19.93;59.03
39449;BME280;25151;45.566;9.382;2023-04-20T11:11:16;99243.72;;;19.92;59.16
39449;BME280;25151;45.566;9.382;2023-04-20T11:14:18;99247.31;;;19.92;59.02
39449;BME280;25151;45.566;9.382;2023-04-20T11:17:31;99242.03;;;19.94;59.16
39449;BME280;25151;45.566;9.382;2023-04-20T11:20:34;99238.94;;;19.92;59.13
39449;BME280;25151;45.566;9.382;2023-04-20T11:23:39;99238.94;;;19.92;59.36
39449;BME280;25151;45.566;9.382;2023-04-20T11:26:41;99234.88;;;19.93;59.12
39449;BME280;25151;45.566;9.382;2023-04-20T11:29:44;99227.59;;;19.96;59.12
39449;BME280;25151;45.566;9.382;2023-04-20T11:32:53;99224.31;;;19.97;58.94
39449;BME280;25151;45.566;9.382;2023-04-20T11:35:57;99231.94;;;19.97;59.13
39449;BME280;25151;45.566;9.382;2023-04-20T11:39:08;99231.94;;;19.97;59.10
39449;BME280;25151;45.566;9.382;2023-04-20T11:42:13;99220.28;;;19.98;59.07
39449;BME280;25151;45.566;9.382;2023-04-20T11:45:15;99211.59;;;19.96;58.92
39449;BME280;25151;45.566;9.382;2023-04-20T11:48:18;99213.91;;;19.98;58.95
39449;BME280;25151;45.566;9.382;2023-04-20T11:51:21;99216.41;;;19.96;58.89
39449;BME280;25151;45.566;9.382;2023-04-20T11:54:27;99207.19;;;19.95;59.03
39449;BME280;25151;45.566;9.382;2023-04-20T11:57:30;99201.59;;;19.95;59.17
39449;BME280;25151;45.566;9.382;2023-04-20T12:00:33;99204.41;;;19.95;59.13
39449;BME280;25151;45.566;9.382;2023-04-20T12:03:34;99209.56;;;19.97;59.24
39449;BME280;25151;45.566;9.382;2023-04-20T12:06:37;99214.38;;;19.96;58.84
39449;BME280;25151;45.566;9.382;2023-04-20T12:09:39;99216.41;;;19.96;59.01
39449;BME280;25151;45.566;9.382;2023-04-20T12:12:40;99211.59;;;19.96;59.35
39449;BME280;25151;45.566;9.382;2023-04-20T12:15:43;99211.59;;;19.96;59.10
39449;BME280;25151;45.566;9.382;2023-04-20T12:18:44;99217.97;;;19.97;59.25
39449;BME280;25151;45.566;9.382;2023-04-20T12:29:55;99214.38;;;19.96;59.12
39449;BME280;25151;45.566;9.382;2023-04-20T12:32:57;99217.19;;;19.96;59.17
39449;BME280;25151;45.566;9.382;2023-04-20T12:36:00;99217.97;;;19.97;59.16
39449;BME280;25151;45.566;9.382;2023-04-20T12:39:02;99219.50;;;19.98;59.31
39449;BME280;25151;45.566;9.382;2023-04-20T12:42:05;99210.34;;;19.97;59.18
39449;BME280;25151;45.566;9.382;2023-04-20T12:45:09;99211.88;;;19.98;59.22
39449;BME280;25151;45.566;9.382;2023-04-20T12:48:11;99217.47;;;19.98;59.25
39449;BME280;25151;45.566;9.382;2023-04-20T12:51:13;99222.31;;;19.98;59.35
39449;BME280;25151;45.566;9.382;2023-04-20T12:54:15;99216.25;;;19.99;59.38
39449;BME280;25151;45.566;9.382;2023-04-20T12:57:17;99213.13;;;19.97;59.10
39449;BME280;25151;45.566;9.382;2023-04-20T13:00:20;99207.06;;;19.99;59.18
39449;BME280;25151;45.566;9.382;2023-04-20T13:03:22;99199.44;;;19.99;59.26
39449;BME280;25151;45.566;9.382;2023-04-20T13:06:27;99191.06;;;19.99;59.16
39449;BME280;25151;45.566;9.382;2023-04-20T13:09:33;99185.44;;;19.99;59.41
39449;BME280;25151;45.566;9.382;2023-04-20T13:12:35;99189.06;;;20.00;59.20
39449;BME280;25151;45.566;9.382;2023-04-20T13:15:37;99182.66;;;19.99;59.42
39449;BME280;25151;45.566;9.382;2023-04-20T13:18:41;99190.59;;;20.01;59.45
39449;BME280;25151;45.566;9.382;2023-04-20T13:21:43;99185.00;;;20.01;59.27
39449;BME280;25151;45.566;9.382;2023-04-20T13:24:46;99184.53;;;20.02;59.33
39449;BME280;25151;45.566;9.382;2023-04-20T13:27:47;99181.75;;;20.02;59.32
39449;BME280;25151;45.566;9.382;2023-04-20T13:30:49;99176.16;;;20.02;59.16
39449;BME280;25151;45.566;9.382;2023-04-20T13:33:54;99167.44;;;20.00;59.22
39449;BME280;25151;45.566;9.382;2023-04-20T13:36:56;99174.59;;;20.01;59.37
39449;BME280;25151;45.566;9.382;2023-04-20T13:40:01;99175.38;;;20.02;59.47
39449;BME280;25151;45.566;9.382;2023-04-20T13:43:04;99174.59;;;20.01;59.33
39449;BME280;25151;45.566;9.382;2023-04-20T13:46:07;99169.78;;;20.02;59.21
39449;BME280;25151;45.566;9.382;2023-04-20T13:49:13;99169.00;;;20.01;59.25
39449;BME280;25151;45.566;9.382;2023-04-20T13:52:17;99164.94;;;20.02;59.54
39449;BME280;25151;45.566;9.382;2023-04-20T13:55:21;99164.94;;;20.02;59.25
39449;BME280;25151;45.566;9.382;2023-04-20T13:58:23;99164.94;;;20.02;59.32
39449;BME280;25151;45.566;9.382;2023-04-20T14:01:26;99155.31;;;20.03;59.36
39449;BME280;25151;45.566;9.382;2023-04-20T14:04:27;99146.59;;;20.01;59.41
39449;BME280;25151;45.566;9.382;2023-04-20T14:07:31;99159.34;;;20.02;59.50
39449;BME280;25151;45.566;9.382;2023-04-20T14:10:36;99160.13;;;20.03;59.47
39449;BME280;25151;45.566;9.382;2023-04-20T14:13:39;99160.91;;;20.03;59.31
39449;BME280;25151;45.566;9.382;2023-04-20T14:16:46;99153.75;;;20.02;59.34
39449;BME280;25151;45.566;9.382;2023-04-20T14:19:48;99149.72;;;20.03;59.30
39449;BME280;25151;45.566;9.382;2023-04-20T14:22:55;99143.81;;;20.01;59.50
39449;BME280;25151;45.566;9.382;2023-04-20T14:26:13;99148.63;;;20.01;59.41
39449;BME280;25151;45.566;9.382;2023-04-20T14:29:19;99142.25;;;20.00;59.50
39449;BME280;25151;45.566;9.382;2023-04-20T14:32:23;99138.53;;;20.03;59.25
39449;BME280;25151;45.566;9.382;2023-04-20T14:35:25;99145.38;;;20.02;59.35
39449;BME280;25151;45.566;9.382;2023-04-20T14:38:27;99155.00;;;20.01;59.18
39449;BME280;25151;45.566;9.382;2023-04-20T14:41:29;99142.69;;;19.99;59.34
39449;BME280;25151;45.566;9.382;2023-04-20T14:44:30;99147.53;;;19.98;59.30
39449;BME280;25151;45.566;9.382;2023-04-20T14:47:32;99129.97;;;19.98;59.26
39449;BME280;25151;45.566;9.382;2023-04-20T14:50:33;99135.56;;;19.98;59.10
39449;BME280;25151;45.566;9.382;2023-04-20T14:53:35;99114.88;;;19.95;59.13
39449;BME280;25151;45.566;9.382;2023-04-20T14:56:38;99120.47;;;19.95;58.82
39449;BME280;25151;45.566;9.382;2023-04-20T14:59:40;99110.84;;;19.96;58.96
39449;BME280;25151;45.566;9.382;2023-04-20T15:02:44;99100.88;;;19.95;58.98
39449;BME280;25151;45.566;9.382;2023-04-20T15:05:46;99101.19;;;19.97;58.79
39449;BME280;25151;45.566;9.382;2023-04-20T15:08:54;99093.59;;;19.98;58.83
39449;BME280;25151;45.566;9.382;2023-04-20T15:11:57;99099.97;;;19.98;58.64
39449;BME280;25151;45.566;9.382;2023-04-20T15:14:59;99092.81;;;19.97;58.77
39449;BME280;25151;45.566;9.382;2023-04-20T15:18:00;99090.31;;;19.99;58.96
39449;BME280;25151;45.566;9.382;2023-04-20T15:21:03;99093.59;;;19.98;58.65
39449;BME280;25151;45.566;9.382;2023-04-20T15:24:10;99085.97;;;19.98;58.91
39449;BME280;25151;45.566;9.382;2023-04-20T15:27:12;99075.09;;;20.00;58.89
39449;BME280;25151;45.566;9.382;2023-04-20T15:30:18;99066.69;;;20.00;59.11
39449;BME280;25151;45.566;9.382;2023-04-20T15:33:20;99066.69;;;20.00;59.08
39449;BME280;25151;45.566;9.382;2023-04-20T15:36:21;99084.28;;;20.01;58.80
39449;BME280;25151;45.566;9.382;2023-04-20T15:39:23;99089.88;;;20.01;58.98
39449;BME280;25151;45.566;9.382;2023-04-20T15:42:25;99076.31;;;19.99;59.20
39449;BME280;25151;45.566;9.382;2023-04-20T15:45:26;99081.91;;;19.99;58.99
39449;BME280;25151;45.566;9.382;2023-04-20T15:48:31;99081.91;;;19.99;58.97
39449;BME280;25151;45.566;9.382;2023-04-20T15:51:33;99093.09;;;19.99;59.17
39449;BME280;25151;45.566;9.382;2023-04-20T15:54:37;99103.53;;;19.99;59.03
39449;BME280;25151;45.566;9.382;2023-04-20T15:57:38;99097.16;;;19.98;59.16
39449;BME280;25151;45.566;9.382;2023-04-20T16:00:39;99098.41;;;19.97;59.07
39449;BME280;25151;45.566;9.382;2023-04-20T16:03:41;99109.13;;;19.99;58.91
39449;BME280;25151;45.566;9.382;2023-04-20T16:06:42;99118.28;;;19.99;59.20
39449;BME280;25151;45.566;9.382;2023-04-20T16:09:43;99120.31;;;19.99;59.29
39449;BME280;25151;45.566;9.382;2023-04-20T16:12:45;99120.31;;;19.99;59.05
39449;BME280;25151;45.566;9.382;2023-04-20T16:15:45;99125.13;;;19.98;59.21
39449;BME280;25151;45.566;9.382;2023-04-20T16:18:47;99117.53;;;19.99;59.26
39449;BME280;25151;45.566;9.382;2023-04-20T16:21:48;99113.16;;;19.98;59.28
39449;BME280;25151;45.566;9.382;2023-04-20T16:24:50;99124.38;;;19.98;59.43